sensor_id;sensor_type;location;lat;lon;timestamp;temperature;humidity
37242;DHT22;23135;51.078;12.108;2023-03-14T00:00:59;10.20;99.90
37242;DHT22;23135;51.078;12.108;2023-03-14T00:03:24;10.20;99.90
37242;DHT22;23135;51.078;12.108;2023-03-14T00:05:50;10.20;99.90
37242;DHT22;23135;51.078;12.108;2023-03-14T00:08:15;10.20;99.90
37242;DHT22;23135;51.078;12.108;2023-03-14T00:10:41;10.30;99.90
37242;DHT22;23135;51.078;12.108;2023-03-14T00:13:07;10.30;99.90
37242;DHT22;23135;51.078;12.108;2023-03-14T00:15:33;10.30;99.90
37242;DHT22;23135;51.078;12.108;2023-03-14T00:17:59;10.40;99.90
37242;DHT22;23135;51.078;12.108;2023-03-14T00:20:25;10.40;99.90
37242;DHT22;23135;51.078;12.108;2023-03-14T00:22:50;10.50;99.90
37242;DHT22;23135;51.078;12.108;2023-03-14T00:25:16;10.40;99.90
37242;DHT22;23135;51.078;12.108;2023-03-14T00:27:41;10.40;99.90
37242;DHT22;23135;51.078;12.108;2023-03-14T00:30:08;10.40;99.90
37242;DHT22;23135;51.078;12.108;2023-03-14T00:32:33;10.40;99.90
37242;DHT22;23135;51.078;12.108;2023-03-14T00:34:59;10.40;99.90
37242;DHT22;23135;51.078;12.108;2023-03-14T00:37:26;10.40;99.90
37242;DHT22;23135;51.078;12.108;2023-03-14T00:39:52;10.50;99.90
37242;DHT22;23135;51.078;12.108;2023-03-14T00:42:17;10.50;99.90
37242;DHT22;23135;51.078;12.108;2023-03-14T00:44:43;10.50;99.90
37242;DHT22;23135;51.078;12.108;2023-03-14T00:47:09;10.50;99.90
37242;DHT22;23135;51.078;12.108;2023-03-14T00:49:34;10.50;99.90
37242;DHT22;23135;51.078;12.108;2023-03-14T00:52:00;10.40;99.90
37242;DHT22;23135;51.078;12.108;2023-03-14T00:54:26;10.40;99.90
37242;DHT22;23135;51.078;12.108;2023-03-14T00:56:52;10.40;99.90
37242;DHT22;23135;51.078;12.108;2023-03-14T00:59:17;10.40;99.90
37242;DHT22;23135;51.078;12.108;2023-03-14T01:01:43;10.40;99.90
37242;DHT22;23135;51.078;12.108;2023-03-14T01:04:09;10.50;99.90
37242;DHT22;23135;51.078;12.108;2023-03-14T01:06:35;10.60;99.90
37242;DHT22;23135;51.078;12.108;2023-03-14T01:09:01;10.60;99.90
37242;DHT22;23135;51.078;12.108;2023-03-14T01:11:29;10.70;99.90
37242;DHT22;23135;51.078;12.108;2023-03-14T01:13:55;10.70;99.90
37242;DHT22;23135;51.078;12.108;2023-03-14T01:16:24;10.70;99.90
37242;DHT22;23135;51.078;12.108;2023-03-14T01:18:50;10.70;99.90
37242;DHT22;23135;51.078;12.108;2023-03-14T01:21:22;10.80;99.90
37242;DHT22;23135;51.078;12.108;2023-03-14T01:23:48;10.70;99.90
37242;DHT22;23135;51.078;12.108;2023-03-14T01:26:18;10.70;99.90
37242;DHT22;23135;51.078;12.108;2023-03-14T01:28:44;10.70;99.90
37242;DHT22;23135;51.078;12.108;2023-03-14T01:31:11;10.70;99.90
37242;DHT22;23135;51.078;12.108;2023-03-14T01:33:37;10.70;99.90
37242;DHT22;23135;51.078;12.108;2023-03-14T01:36:04;10.70;99.90
37242;DHT22;23135;51.078;12.108;2023-03-14T01:38:31;10.70;99.90
37242;DHT22;23135;51.078;12.108;2023-03-14T01:40:57;10.70;99.90
37242;DHT22;23135;51.078;12.108;2023-03-14T01:43:23;10.80;99.90
37242;DHT22;23135;51.078;12.108;2023-03-14T01:48:44;10.80;99.90
37242;DHT22;23135;51.078;12.108;2023-03-14T01:51:14;10.70;99.90
37242;DHT22;23135;51.078;12.108;2023-03-14T01:53:43;10.70;99.90
37242;DHT22;23135;51.078;12.108;2023-03-14T01:56:11;10.70;99.90
37242;DHT22;23135;51.078;12.108;2023-03-14T01:58:40;10.60;99.90
37242;DHT22;23135;51.078;12.108;2023-03-14T02:01:08;10.60;99.90
37242;DHT22;23135;51.078;12.108;2023-03-14T02:03:44;10.60;99.90
37242;DHT22;23135;51.078;12.108;2023-03-14T02:06:13;10.60;99.90
37242;DHT22;23135;51.078;12.108;2023-03-14T02:08:40;10.70;99.90
37242;DHT22;23135;51.078;12.108;2023-03-14T02:11:06;10.60;99.90
37242;DHT22;23135;51.078;12.108;2023-03-14T02:13:32;10.60;99.90
37242;DHT22;23135;51.078;12.108;2023-03-14T02:15:58;10.60;99.90
37242;DHT22;23135;51.078;12.108;2023-03-14T02:18:23;10.60;99.90
37242;DHT22;23135;51.078;12.108;2023-03-14T02:21:20;10.60;99.90
37242;DHT22;23135;51.078;12.108;2023-03-14T02:26:40;10.60;99.90
37242;DHT22;23135;51.078;12.108;2023-03-14T02:29:08;10.50;99.90
37242;DHT22;23135;51.078;12.108;2023-03-14T02:31:34;10.40;99.90
37242;DHT22;23135;51.078;12.108;2023-03-14T02:34:01;10.50;99.90
37242;DHT22;23135;51.078;12.108;2023-03-14T02:36:27;10.50;99.90
37242;DHT22;23135;51.078;12.108;2023-03-14T02:41:57;10.50;99.90
37242;DHT22;23135;51.078;12.108;2023-03-14T02:44:23;10.50;99.90
37242;DHT22;23135;51.078;12.108;2023-03-14T02:46:48;10.50;99.90
37242;DHT22;23135;51.078;12.108;2023-03-14T02:49:14;10.40;99.90
37242;DHT22;23135;51.078;12.108;2023-03-14T02:51:42;10.40;99.90
37242;DHT22;23135;51.078;12.108;2023-03-14T02:54:08;10.40;99.90
37242;DHT22;23135;51.078;12.108;2023-03-14T02:56:34;10.40;99.90
37242;DHT22;23135;51.078;12.108;2023-03-14T02:59:05;10.40;99.90
37242;DHT22;23135;51.078;12.108;2023-03-14T03:01:30;10.40;99.90
37242;DHT22;23135;51.078;12.108;2023-03-14T03:03:56;10.40;99.90
37242;DHT22;23135;51.078;12.108;2023-03-14T03:06:22;10.40;99.90
37242;DHT22;23135;51.078;12.108;2023-03-14T03:08:47;10.40;99.90
37242;DHT22;23135;51.078;12.108;2023-03-14T03:11:13;10.40;99.90
37242;DHT22;23135;51.078;12.108;2023-03-14T03:13:38;10.50;99.90
37242;DHT22;23135;51.078;12.108;2023-03-14T03:16:04;10.40;99.90
37242;DHT22;23135;51.078;12.108;2023-03-14T03:18:30;10.40;99.90
37242;DHT22;23135;51.078;12.108;2023-03-14T03:21:00;10.40;99.90
37242;DHT22;23135;51.078;12.108;2023-03-14T03:23:25;10.50;99.90
37242;DHT22;23135;51.078;12.108;2023-03-14T03:25:51;10.40;99.90
37242;DHT22;23135;51.078;12.108;2023-03-14T03:28:18;10.50;99.90
37242;DHT22;23135;51.078;12.108;2023-03-14T03:30:44;10.40;99.90
37242;DHT22;23135;51.078;12.108;2023-03-14T03:33:10;10.50;99.90
37242;DHT22;23135;51.078;12.108;2023-03-14T03:35:45;10.40;99.90
37242;DHT22;23135;51.078;12.108;2023-03-14T03:38:12;10.40;99.90
37242;DHT22;23135;51.078;12.108;2023-03-14T03:40:38;10.40;99.90
37242;DHT22;23135;51.078;12.108;2023-03-14T03:43:03;10.40;99.90
37242;DHT22;23135;51.078;12.108;2023-03-14T03:45:29;10.40;99.90
37242;DHT22;23135;51.078;12.108;2023-03-14T03:47:55;10.30;99.90
37242;DHT22;23135;51.078;12.108;2023-03-14T03:50:20;10.40;99.90
37242;DHT22;23135;51.078;12.108;2023-03-14T03:52:46;10.40;99.90
37242;DHT22;23135;51.078;12.108;2023-03-14T03:55:11;10.40;99.90
37242;DHT22;23135;51.078;12.108;2023-03-14T03:57:37;10.30;99.90
37242;DHT22;23135;51.078;12.108;2023-03-14T04:00:04;10.30;99.90
37242;DHT22;23135;51.078;12.108;2023-03-14T04:02:31;10.30;99.90
37242;DHT22;23135;51.078;12.108;2023-03-14T04:04:56;10.30;99.90
37242;DHT22;23135;51.078;12.108;2023-03-14T04:07:22;10.30;99.90
37242;DHT22;23135;51.078;12.108;2023-03-14T04:09:47;10.30;99.90
37242;DHT22;23135;51.078;12.108;2023-03-14T04:12:13;10.40;99.90
37242;DHT22;23135;51.078;12.108;2023-03-14T04:14:39;10.50;99.90
37242;DHT22;23135;51.078;12.108;2023-03-14T04:17:12;10.50;99.90
37242;DHT22;23135;51.078;12.108;2023-03-14T04:19:38;10.50;99.90
37242;DHT22;23135;51.078;12.108;2023-03-14T04:22:04;10.50;99.90
37242;DHT22;23135;51.078;12.108;2023-03-14T04:24:29;10.40;99.90
37242;DHT22;23135;51.078;12.108;2023-03-14T04:26:55;10.50;99.90
37242;DHT22;23135;51.078;12.108;2023-03-14T04:29:20;10.50;99.90
37242;DHT22;23135;51.078;12.108;2023-03-14T04:31:46;10.50;99.90
37242;DHT22;23135;51.078;12.108;2023-03-14T04:34:12;10.50;99.90
37242;DHT22;23135;51.078;12.108;2023-03-14T04:36:37;10.40;99.90
37242;DHT22;23135;51.078;12.108;2023-03-14T04:39:03;10.50;99.90
37242;DHT22;23135;51.078;12.108;2023-03-14T04:41:29;10.50;99.90
37242;DHT22;23135;51.078;12.108;2023-03-14T04:43:55;10.50;99.90
37242;DHT22;23135;51.078;12.108;2023-03-14T04:46:21;10.60;99.90
37242;DHT22;23135;51.078;12.108;2023-03-14T04:48:46;10.60;99.90
37242;DHT22;23135;51.078;12.108;2023-03-14T04:51:12;10.60;99.90
37242;DHT22;23135;51.078;12.108;2023-03-14T04:53:37;10.60;99.90
37242;DHT22;23135;51.078;12.108;2023-03-14T04:56:03;10.60;99.90
37242;DHT22;23135;51.078;12.108;2023-03-14T04:58:29;10.60;99.90
37242;DHT22;23135;51.078;12.108;2023-03-14T05:00:54;10.50;99.90
37242;DHT22;23135;51.078;12.108;2023-03-14T05:03:20;10.50;99.90
37242;DHT22;23135;51.078;12.108;2023-03-14T05:05:46;10.50;99.90
37242;DHT22;23135;51.078;12.108;2023-03-14T05:08:12;10.50;99.90
37242;DHT22;23135;51.078;12.108;2023-03-14T05:10:38;10.50;99.90
37242;DHT22;23135;51.078;12.108;2023-03-14T05:13:03;10.60;99.90
37242;DHT22;23135;51.078;12.108;2023-03-14T05:15:29;10.60;99.90
37242;DHT22;23135;51.078;12.108;2023-03-14T05:17:54;10.50;99.90
37242;DHT22;23135;51.078;12.108;2023-03-14T05:20:21;10.50;99.90
37242;DHT22;23135;51.078;12.108;2023-03-14T05:22:46;10.40;99.90
37242;DHT22;23135;51.078;12.108;2023-03-14T05:25:12;10.40;99.90
37242;DHT22;23135;51.078;12.108;2023-03-14T05:27:38;10.40;99.90
37242;DHT22;23135;51.078;12.108;2023-03-14T05:30:05;10.40;99.90
37242;DHT22;23135;51.078;12.108;2023-03-14T05:32:30;10.40;99.90
37242;DHT22;23135;51.078;12.108;2023-03-14T05:34:56;10.40;99.90
37242;DHT22;23135;51.078;12.108;2023-03-14T05:37:27;10.40;99.90
37242;DHT22;23135;51.078;12.108;2023-03-14T05:39:53;10.50;99.90
37242;DHT22;23135;51.078;12.108;2023-03-14T05:42:19;10.40;99.90
37242;DHT22;23135;51.078;12.108;2023-03-14T05:44:44;10.40;99.90
37242;DHT22;23135;51.078;12.108;2023-03-14T05:47:10;10.50;99.90
37242;DHT22;23135;51.078;12.108;2023-03-14T05:49:35;10.40;99.90
37242;DHT22;23135;51.078;12.108;2023-03-14T05:52:01;10.40;99.90
37242;DHT22;23135;51.078;12.108;2023-03-14T05:54:27;10.50;99.90
37242;DHT22;23135;51.078;12.108;2023-03-14T05:56:53;10.50;99.90
37242;DHT22;23135;51.078;12.108;2023-03-14T05:59:18;10.50;99.90
37242;DHT22;23135;51.078;12.108;2023-03-14T06:01:44;10.50;99.90
37242;DHT22;23135;51.078;12.108;2023-03-14T06:04:09;10.50;99.90
37242;DHT22;23135;51.078;12.108;2023-03-14T06:06:35;10.50;99.90
37242;DHT22;23135;51.078;12.108;2023-03-14T06:09:01;10.40;99.90
37242;DHT22;23135;51.078;12.108;2023-03-14T06:11:34;10.40;99.90
37242;DHT22;23135;51.078;12.108;2023-03-14T06:13:59;10.40;99.90
37242;DHT22;23135;51.078;12.108;2023-03-14T06:16:25;10.40;99.90
37242;DHT22;23135;51.078;12.108;2023-03-14T06:18:50;10.40;99.90
37242;DHT22;23135;51.078;12.108;2023-03-14T06:21:17;10.40;99.90
37242;DHT22;23135;51.078;12.108;2023-03-14T06:23:43;10.30;99.90
37242;DHT22;23135;51.078;12.108;2023-03-14T06:26:09;10.40;99.90
37242;DHT22;23135;51.078;12.108;2023-03-14T06:28:34;10.40;99.90
37242;DHT22;23135;51.078;12.108;2023-03-14T06:31:00;10.50;99.90
37242;DHT22;23135;51.078;12.108;2023-03-14T06:33:26;10.50;99.90
37242;DHT22;23135;51.078;12.108;2023-03-14T06:35:51;10.50;99.90
37242;DHT22;23135;51.078;12.108;2023-03-14T06:38:17;10.50;99.90
37242;DHT22;23135;51.078;12.108;2023-03-14T06:40:42;10.60;99.90
37242;DHT22;23135;51.078;12.108;2023-03-14T06:43:08;10.50;99.90
37242;DHT22;23135;51.078;12.108;2023-03-14T06:45:33;10.60;99.90
37242;DHT22;23135;51.078;12.108;2023-03-14T06:47:59;10.60;99.90
37242;DHT22;23135;51.078;12.108;2023-03-14T06:50:25;10.70;99.90
37242;DHT22;23135;51.078;12.108;2023-03-14T06:52:50;10.70;99.90
37242;DHT22;23135;51.078;12.108;2023-03-14T06:55:16;10.70;99.90
37242;DHT22;23135;51.078;12.108;2023-03-14T06:57:42;10.70;99.90
37242;DHT22;23135;51.078;12.108;2023-03-14T07:00:10;10.70;99.90
37242;DHT22;23135;51.078;12.108;2023-03-14T07:02:36;10.70;99.90
37242;DHT22;23135;51.078;12.108;2023-03-14T07:05:03;10.70;99.90
37242;DHT22;23135;51.078;12.108;2023-03-14T07:07:28;10.70;99.90
37242;DHT22;23135;51.078;12.108;2023-03-14T07:09:54;10.80;99.90
37242;DHT22;23135;51.078;12.108;2023-03-14T07:12:20;10.90;99.90
37242;DHT22;23135;51.078;12.108;2023-03-14T07:14:45;10.80;99.90
37242;DHT22;23135;51.078;12.108;2023-03-14T07:17:11;10.80;99.90
37242;DHT22;23135;51.078;12.108;2023-03-14T07:19:36;10.80;99.90
37242;DHT22;23135;51.078;12.108;2023-03-14T07:22:04;10.90;99.90
37242;DHT22;23135;51.078;12.108;2023-03-14T07:24:29;10.90;99.90
37242;DHT22;23135;51.078;12.108;2023-03-14T07:26:55;11.00;99.90
37242;DHT22;23135;51.078;12.108;2023-03-14T07:29:20;11.00;99.90
37242;DHT22;23135;51.078;12.108;2023-03-14T07:31:46;11.10;99.90
37242;DHT22;23135;51.078;12.108;2023-03-14T07:34:11;11.10;99.90
37242;DHT22;23135;51.078;12.108;2023-03-14T07:36:37;11.20;99.90
37242;DHT22;23135;51.078;12.108;2023-03-14T07:39:03;11.20;99.90
37242;DHT22;23135;51.078;12.108;2023-03-14T07:41:30;11.20;99.90
37242;DHT22;23135;51.078;12.108;2023-03-14T07:43:55;11.20;99.90
37242;DHT22;23135;51.078;12.108;2023-03-14T07:46:21;11.30;99.90
37242;DHT22;23135;51.078;12.108;2023-03-14T07:48:46;11.30;99.90
37242;DHT22;23135;51.078;12.108;2023-03-14T07:51:12;11.30;99.90
37242;DHT22;23135;51.078;12.108;2023-03-14T07:53:38;11.30;99.90
37242;DHT22;23135;51.078;12.108;2023-03-14T07:56:05;11.30;99.90
37242;DHT22;23135;51.078;12.108;2023-03-14T07:58:30;11.40;99.90
37242;DHT22;23135;51.078;12.108;2023-03-14T08:00:58;11.30;99.90
37242;DHT22;23135;51.078;12.108;2023-03-14T08:03:24;11.30;99.90
37242;DHT22;23135;51.078;12.108;2023-03-14T08:05:50;11.30;99.90
37242;DHT22;23135;51.078;12.108;2023-03-14T08:08:16;11.70;99.90
37242;DHT22;23135;51.078;12.108;2023-03-14T08:10:42;12.00;99.90
37242;DHT22;23135;51.078;12.108;2023-03-14T08:13:09;11.90;99.90
37242;DHT22;23135;51.078;12.108;2023-03-14T08:15:34;11.90;99.90
37242;DHT22;23135;51.078;12.108;2023-03-14T08:18:00;11.80;99.90
37242;DHT22;23135;51.078;12.108;2023-03-14T08:20:28;11.80;99.90
37242;DHT22;23135;51.078;12.108;2023-03-14T08:22:58;11.90;99.90
37242;DHT22;23135;51.078;12.108;2023-03-14T08:25:24;11.90;99.90
37242;DHT22;23135;51.078;12.108;2023-03-14T08:27:50;12.00;99.90
37242;DHT22;23135;51.078;12.108;2023-03-14T08:30:18;12.00;99.90
37242;DHT22;23135;51.078;12.108;2023-03-14T08:32:44;12.10;99.90
37242;DHT22;23135;51.078;12.108;2023-03-14T08:35:11;12.10;99.90
37242;DHT22;23135;51.078;12.108;2023-03-14T08:37:36;12.10;99.90
37242;DHT22;23135;51.078;12.108;2023-03-14T08:40:04;12.10;99.90
37242;DHT22;23135;51.078;12.108;2023-03-14T08:42:33;12.10;99.90
37242;DHT22;23135;51.078;12.108;2023-03-14T08:44:59;12.10;99.90
37242;DHT22;23135;51.078;12.108;2023-03-14T08:47:24;12.10;99.90
37242;DHT22;23135;51.078;12.108;2023-03-14T08:49:50;12.20;99.90
37242;DHT22;23135;51.078;12.108;2023-03-14T08:52:16;12.20;99.90
37242;DHT22;23135;51.078;12.108;2023-03-14T08:54:43;12.20;99.90
37242;DHT22;23135;51.078;12.108;2023-03-14T08:57:09;12.30;99.90
37242;DHT22;23135;51.078;12.108;2023-03-14T08:59:35;12.40;99.90
37242;DHT22;23135;51.078;12.108;2023-03-14T09:02:00;12.60;99.90
37242;DHT22;23135;51.078;12.108;2023-03-14T09:04:29;12.60;99.90
37242;DHT22;23135;51.078;12.108;2023-03-14T09:06:55;12.50;99.90
37242;DHT22;23135;51.078;12.108;2023-03-14T09:09:23;12.60;99.90
37242;DHT22;23135;51.078;12.108;2023-03-14T09:11:49;12.50;99.90
37242;DHT22;23135;51.078;12.108;2023-03-14T09:14:14;12.50;99.90
37242;DHT22;23135;51.078;12.108;2023-03-14T09:16:40;12.40;99.90
37242;DHT22;23135;51.078;12.108;2023-03-14T09:19:06;12.40;99.90
37242;DHT22;23135;51.078;12.108;2023-03-14T09:21:31;12.30;99.90
37242;DHT22;23135;51.078;12.108;2023-03-14T09:23:57;12.30;99.90
37242;DHT22;23135;51.078;12.108;2023-03-14T09:26:22;12.60;99.90
37242;DHT22;23135;51.078;12.108;2023-03-14T09:28:48;12.90;99.90
37242;DHT22;23135;51.078;12.108;2023-03-14T09:31:14;13.20;99.90
37242;DHT22;23135;51.078;12.108;2023-03-14T09:33:40;13.30;99.90
37242;DHT22;23135;51.078;12.108;2023-03-14T09:36:06;13.50;99.90
37242;DHT22;23135;51.078;12.108;2023-03-14T09:38:33;13.80;99.90
37242;DHT22;23135;51.078;12.108;2023-03-14T09:41:00;14.00;99.90
37242;DHT22;23135;51.078;12.108;2023-03-14T09:43:29;14.00;99.90
37242;DHT22;23135;51.078;12.108;2023-03-14T09:45:57;14.00;99.90
37242;DHT22;23135;51.078;12.108;2023-03-14T09:48:29;13.90;99.90
37242;DHT22;23135;51.078;12.108;2023-03-14T09:50:57;14.40;99.90
37242;DHT22;23135;51.078;12.108;2023-03-14T09:53:27;14.30;99.90
37242;DHT22;23135;51.078;12.108;2023-03-14T09:55:53;14.20;99.90
37242;DHT22;23135;51.078;12.108;2023-03-14T09:58:22;14.30;99.90
37242;DHT22;23135;51.078;12.108;2023-03-14T10:00:49;14.10;99.90
37242;DHT22;23135;51.078;12.108;2023-03-14T10:03:32;13.80;99.90
37242;DHT22;23135;51.078;12.108;2023-03-14T10:05:58;13.80;99.90
37242;DHT22;23135;51.078;12.108;2023-03-14T10:08:24;13.90;99.90
37242;DHT22;23135;51.078;12.108;2023-03-14T10:10:49;13.90;99.90
37242;DHT22;23135;51.078;12.108;2023-03-14T10:13:18;13.90;99.90
37242;DHT22;23135;51.078;12.108;2023-03-14T10:15:59;13.80;99.90
37242;DHT22;23135;51.078;12.108;2023-03-14T10:18:25;14.10;99.90
37242;DHT22;23135;51.078;12.108;2023-03-14T10:23:33;14.70;99.90
37242;DHT22;23135;51.078;12.108;2023-03-14T10:26:14;14.50;99.90
37242;DHT22;23135;51.078;12.108;2023-03-14T10:28:49;14.30;99.90
37242;DHT22;23135;51.078;12.108;2023-03-14T10:31:17;14.40;99.90
37242;DHT22;23135;51.078;12.108;2023-03-14T10:34:00;14.20;99.90
37242;DHT22;23135;51.078;12.108;2023-03-14T10:36:29;14.20;99.90
37242;DHT22;23135;51.078;12.108;2023-03-14T10:41:48;14.20;99.90
37242;DHT22;23135;51.078;12.108;2023-03-14T10:44:16;14.20;99.90
37242;DHT22;23135;51.078;12.108;2023-03-14T10:46:45;14.00;99.90
37242;DHT22;23135;51.078;12.108;2023-03-14T10:49:25;13.80;99.90
37242;DHT22;23135;51.078;12.108;2023-03-14T10:51:52;13.90;99.90
37242;DHT22;23135;51.078;12.108;2023-03-14T10:54:22;13.90;99.90
37242;DHT22;23135;51.078;12.108;2023-03-14T10:57:00;13.60;99.90
37242;DHT22;23135;51.078;12.108;2023-03-14T10:59:29;13.40;99.90
37242;DHT22;23135;51.078;12.108;2023-03-14T11:05:01;13.20;99.90
37242;DHT22;23135;51.078;12.108;2023-03-14T11:07:38;13.10;99.90
37242;DHT22;23135;51.078;12.108;2023-03-14T11:26:59;13.00;99.90
37242;DHT22;23135;51.078;12.108;2023-03-14T11:29:54;13.00;99.90
37242;DHT22;23135;51.078;12.108;2023-03-14T11:32:46;13.10;99.90
37242;DHT22;23135;51.078;12.108;2023-03-14T11:35:33;13.00;99.90
37242;DHT22;23135;51.078;12.108;2023-03-14T11:40:45;13.20;99.90
37242;DHT22;23135;51.078;12.108;2023-03-14T11:43:17;13.40;99.90
37242;DHT22;23135;51.078;12.108;2023-03-14T11:45:45;13.70;99.90
37242;DHT22;23135;51.078;12.108;2023-03-14T11:48:29;13.90;99.90
37242;DHT22;23135;51.078;12.108;2023-03-14T11:51:00;14.30;99.90
37242;DHT22;23135;51.078;12.108;2023-03-14T11:53:44;14.70;99.90
37242;DHT22;23135;51.078;12.108;2023-03-14T11:56:39;14.90;99.90
37242;DHT22;23135;51.078;12.108;2023-03-14T11:59:11;14.30;99.90
37242;DHT22;23135;51.078;12.108;2023-03-14T12:04:54;13.60;99.90
37242;DHT22;23135;51.078;12.108;2023-03-14T12:07:33;13.40;99.90
37242;DHT22;23135;51.078;12.108;2023-03-14T12:10:02;13.40;99.90
37242;DHT22;23135;51.078;12.108;2023-03-14T12:12:29;13.30;99.90
37242;DHT22;23135;51.078;12.108;2023-03-14T12:15:03;13.10;99.90
37242;DHT22;23135;51.078;12.108;2023-03-14T12:20:25;12.60;99.90
37242;DHT22;23135;51.078;12.108;2023-03-14T12:22:51;12.30;99.90
37242;DHT22;23135;51.078;12.108;2023-03-14T12:25:26;12.70;99.90
37242;DHT22;23135;51.078;12.108;2023-03-14T12:30:40;13.60;99.90
37242;DHT22;23135;51.078;12.108;2023-03-14T12:35:42;13.70;99.90
37242;DHT22;23135;51.078;12.108;2023-03-14T12:38:14;13.50;99.90
37242;DHT22;23135;51.078;12.108;2023-03-14T12:40:52;13.90;99.90
37242;DHT22;23135;51.078;12.108;2023-03-14T12:43:31;14.30;99.90
37242;DHT22;23135;51.078;12.108;2023-03-14T12:46:19;14.20;99.90
37242;DHT22;23135;51.078;12.108;2023-03-14T12:48:50;14.60;99.90
37242;DHT22;23135;51.078;12.108;2023-03-14T12:51:21;14.80;99.90
37242;DHT22;23135;51.078;12.108;2023-03-14T12:56:59;14.50;99.90
37242;DHT22;23135;51.078;12.108;2023-03-14T13:07:30;14.90;99.90
37242;DHT22;23135;51.078;12.108;2023-03-14T13:12:49;14.40;99.90
37242;DHT22;23135;51.078;12.108;2023-03-14T13:15:39;14.10;99.90
37242;DHT22;23135;51.078;12.108;2023-03-14T13:18:17;14.00;99.90
37242;DHT22;23135;51.078;12.108;2023-03-14T13:20:55;14.00;99.90
37242;DHT22;23135;51.078;12.108;2023-03-14T13:23:29;13.90;99.90
37242;DHT22;23135;51.078;12.108;2023-03-14T13:25:56;14.30;99.90
37242;DHT22;23135;51.078;12.108;2023-03-14T13:28:22;14.90;99.90
37242;DHT22;23135;51.078;12.108;2023-03-14T13:30:49;15.10;99.90
37242;DHT22;23135;51.078;12.108;2023-03-14T13:33:21;14.80;99.90
37242;DHT22;23135;51.078;12.108;2023-03-14T13:35:50;15.30;99.90
37242;DHT22;23135;51.078;12.108;2023-03-14T13:38:26;15.40;99.90
37242;DHT22;23135;51.078;12.108;2023-03-14T13:40:54;15.40;99.90
37242;DHT22;23135;51.078;12.108;2023-03-14T13:43:34;14.90;99.90
37242;DHT22;23135;51.078;12.108;2023-03-14T13:48:44;14.30;99.90
37242;DHT22;23135;51.078;12.108;2023-03-14T13:51:12;14.40;99.90
37242;DHT22;23135;51.078;12.108;2023-03-14T13:56:12;14.60;99.90
37242;DHT22;23135;51.078;12.108;2023-03-14T13:58:39;14.40;99.90
37242;DHT22;23135;51.078;12.108;2023-03-14T14:01:16;14.40;99.90
37242;DHT22;23135;51.078;12.108;2023-03-14T14:03:45;14.50;99.90
37242;DHT22;23135;51.078;12.108;2023-03-14T14:06:34;14.50;99.90
37242;DHT22;23135;51.078;12.108;2023-03-14T14:09:23;14.50;99.90
37242;DHT22;23135;51.078;12.108;2023-03-14T14:14:30;14.10;99.90
37242;DHT22;23135;51.078;12.108;2023-03-14T14:16:58;13.90;99.90
37242;DHT22;23135;51.078;12.108;2023-03-14T14:19:27;13.80;99.90
37242;DHT22;23135;51.078;12.108;2023-03-14T14:21:54;13.70;99.90
37242;DHT22;23135;51.078;12.108;2023-03-14T14:24:22;13.70;99.90
37242;DHT22;23135;51.078;12.108;2023-03-14T14:27:00;13.70;99.90
37242;DHT22;23135;51.078;12.108;2023-03-14T14:29:31;13.70;99.90
37242;DHT22;23135;51.078;12.108;2023-03-14T14:34:27;13.60;99.90
37242;DHT22;23135;51.078;12.108;2023-03-14T14:36:52;13.60;99.90
37242;DHT22;23135;51.078;12.108;2023-03-14T14:39:21;13.60;99.90
37242;DHT22;23135;51.078;12.108;2023-03-14T14:41:50;13.70;99.90
37242;DHT22;23135;51.078;12.108;2023-03-14T14:44:31;13.70;99.90
37242;DHT22;23135;51.078;12.108;2023-03-14T14:46:58;13.50;99.90
37242;DHT22;23135;51.078;12.108;2023-03-14T14:49:30;13.40;99.90
37242;DHT22;23135;51.078;12.108;2023-03-14T14:52:03;13.20;99.90
37242;DHT22;23135;51.078;12.108;2023-03-14T14:54:54;13.00;99.90
37242;DHT22;23135;51.078;12.108;2023-03-14T14:57:28;12.80;99.90
37242;DHT22;23135;51.078;12.108;2023-03-14T15:00:06;12.70;99.90
37242;DHT22;23135;51.078;12.108;2023-03-14T15:02:41;12.50;99.90
37242;DHT22;23135;51.078;12.108;2023-03-14T15:05:14;12.20;99.90
37242;DHT22;23135;51.078;12.108;2023-03-14T15:07:41;11.90;99.90
37242;DHT22;23135;51.078;12.108;2023-03-14T15:10:10;11.70;99.90
37242;DHT22;23135;51.078;12.108;2023-03-14T15:12:36;11.30;99.90
37242;DHT22;23135;51.078;12.108;2023-03-14T15:15:01;11.00;99.90
37242;DHT22;23135;51.078;12.108;2023-03-14T15:17:27;10.50;99.90
37242;DHT22;23135;51.078;12.108;2023-03-14T15:19:52;9.30;99.90
37242;DHT22;23135;51.078;12.108;2023-03-14T15:22:18;8.80;99.90
37242;DHT22;23135;51.078;12.108;2023-03-14T15:24:44;8.50;99.90
37242;DHT22;23135;51.078;12.108;2023-03-14T15:27:13;8.30;99.90
37242;DHT22;23135;51.078;12.108;2023-03-14T15:29:40;8.20;99.90
37242;DHT22;23135;51.078;12.108;2023-03-14T15:32:05;8.10;99.90
37242;DHT22;23135;51.078;12.108;2023-03-14T15:34:32;8.00;99.90
37242;DHT22;23135;51.078;12.108;2023-03-14T15:36:57;7.90;99.90
37242;DHT22;23135;51.078;12.108;2023-03-14T15:39:23;7.80;99.90
37242;DHT22;23135;51.078;12.108;2023-03-14T15:41:48;7.70;99.90
37242;DHT22;23135;51.078;12.108;2023-03-14T15:44:14;7.50;99.90
37242;DHT22;23135;51.078;12.108;2023-03-14T15:46:39;7.50;99.90
37242;DHT22;23135;51.078;12.108;2023-03-14T15:49:05;7.50;99.90
37242;DHT22;23135;51.078;12.108;2023-03-14T15:51:30;7.10;99.90
37242;DHT22;23135;51.078;12.108;2023-03-14T15:53:57;6.50;99.90
37242;DHT22;23135;51.078;12.108;2023-03-14T15:56:22;6.20;99.90
37242;DHT22;23135;51.078;12.108;2023-03-14T15:58:50;6.00;99.90
37242;DHT22;23135;51.078;12.108;2023-03-14T16:01:16;5.90;99.90
37242;DHT22;23135;51.078;12.108;2023-03-14T16:03:45;5.90;99.90
37242;DHT22;23135;51.078;12.108;2023-03-14T16:06:11;5.80;99.90
37242;DHT22;23135;51.078;12.108;2023-03-14T16:08:36;5.60;99.90
37242;DHT22;23135;51.078;12.108;2023-03-14T16:11:02;5.40;99.90
37242;DHT22;23135;51.078;12.108;2023-03-14T16:13:28;5.40;99.90
37242;DHT22;23135;51.078;12.108;2023-03-14T16:16:01;5.30;99.90
37242;DHT22;23135;51.078;12.108;2023-03-14T16:18:30;5.20;99.90
37242;DHT22;23135;51.078;12.108;2023-03-14T16:20:58;5.00;99.90
37242;DHT22;23135;51.078;12.108;2023-03-14T16:23:25;4.80;99.90
37242;DHT22;23135;51.078;12.108;2023-03-14T16:25:52;4.70;99.90
37242;DHT22;23135;51.078;12.108;2023-03-14T16:28:17;4.50;99.90
37242;DHT22;23135;51.078;12.108;2023-03-14T16:30:43;4.40;99.90
37242;DHT22;23135;51.078;12.108;2023-03-14T16:33:09;4.20;99.90
37242;DHT22;23135;51.078;12.108;2023-03-14T16:35:36;4.10;99.90